createdAt,value
2023-02-19T00:01:20.139Z,-5.41
2023-02-19T00:03:55.086Z,-5.38
2023-02-19T00:06:31.338Z,-5.52
2023-02-19T00:09:04.800Z,-5.40
2023-02-19T00:11:38.116Z,-5.44
2023-02-19T00:14:15.283Z,-5.46
2023-02-19T00:16:48.225Z,-5.51
2023-02-19T00:19:22.095Z,-5.53
2023-02-19T00:21:56.381Z,-5.44
2023-02-19T00:24:29.280Z,-5.45
2023-02-19T00:27:02.286Z,-5.49
2023-02-19T00:29:35.178Z,-5.50
2023-02-19T00:32:08.854Z,-5.54
2023-02-19T00:34:41.825Z,-5.55
2023-02-19T00:37:16.552Z,-5.56
2023-02-19T00:39:49.601Z,-5.65
2023-02-19T00:42:22.100Z,-5.63
2023-02-19T00:44:55.479Z,-5.60
2023-02-19T00:47:28.221Z,-5.63
2023-02-19T00:50:01.334Z,-5.64
2023-02-19T00:52:35.460Z,-5.67
2023-02-19T00:55:08.869Z,-5.69
2023-02-19T00:57:41.308Z,-5.70
2023-02-19T01:00:14.897Z,-5.71
2023-02-19T01:02:48.580Z,-5.70
2023-02-19T01:05:22.587Z,-5.72
2023-02-19T01:07:57.145Z,-5.67
2023-02-19T01:10:29.866Z,-5.65
2023-02-19T01:13:03.078Z,-5.63
2023-02-19T01:15:36.141Z,-5.61
2023-02-19T01:18:09.336Z,-5.60
2023-02-19T01:20:44.443Z,-5.58
2023-02-19T01:23:18.894Z,-5.59
2023-02-19T01:25:51.943Z,-5.60
2023-02-19T01:28:24.503Z,-5.60
2023-02-19T01:31:02.106Z,-5.61
2023-02-19T01:33:35.609Z,-5.61
2023-02-19T01:36:08.957Z,-5.64
2023-02-19T01:38:44.603Z,-5.62
2023-02-19T01:41:19.120Z,-5.60
2023-02-19T01:44:29.905Z,-5.58
2023-02-19T01:47:02.354Z,-5.58
2023-02-19T01:49:39.642Z,-5.57
2023-02-19T01:52:16.970Z,-5.54
2023-02-19T01:54:52.726Z,-5.51
2023-02-19T01:57:28.834Z,-5.49
2023-02-19T02:00:06.898Z,-5.50
2023-02-19T02:02:52.370Z,-5.54
2023-02-19T02:05:43.151Z,-5.51
2023-02-19T02:08:36.981Z,-5.53
2023-02-19T02:11:11.811Z,-5.50
2023-02-19T02:13:44.883Z,-5.51
2023-02-19T02:16:25.942Z,-5.62
2023-02-19T02:19:14.311Z,-5.50
2023-02-19T02:21:59.693Z,-5.47
2023-02-19T02:25:05.935Z,-5.49
2023-02-19T02:27:50.047Z,-5.52
2023-02-19T02:30:45.536Z,-5.61
2023-02-19T02:33:27.175Z,-5.49
2023-02-19T02:36:06.294Z,-5.51
2023-02-19T02:38:44.647Z,-5.55
2023-02-19T02:41:19.151Z,-5.52
2023-02-19T02:43:52.105Z,-5.52
2023-02-19T02:46:30.501Z,-5.48
2023-02-19T02:49:09.326Z,-5.51
2023-02-19T02:51:47.963Z,-5.48
2023-02-19T02:54:49.441Z,-5.46
2023-02-19T02:57:23.690Z,-5.63
2023-02-19T03:00:01.505Z,-5.42
2023-02-19T03:02:40.046Z,-5.42
2023-02-19T03:05:36.641Z,-5.42
2023-02-19T03:08:13.876Z,-5.42
2023-02-19T03:10:51.903Z,-5.45
2023-02-19T03:13:48.814Z,-5.49
2023-02-19T03:16:45.219Z,-5.50
2023-02-19T03:19:23.035Z,-5.49
2023-02-19T03:22:02.122Z,-5.52
2023-02-19T03:24:59.844Z,-5.55
2023-02-19T03:27:35.221Z,-5.53
2023-02-19T03:30:13.598Z,-5.59
2023-02-19T03:32:50.419Z,-5.57
2023-02-19T03:35:28.374Z,-5.56
2023-02-19T03:38:07.762Z,-5.56
2023-02-19T03:40:50.816Z,-5.58
2023-02-19T03:43:35.342Z,-5.57
2023-02-19T03:46:12.476Z,-5.60
2023-02-19T03:48:52.531Z,-5.56
2023-02-19T03:51:35.069Z,-5.57
2023-02-19T03:54:14.108Z,-5.62
2023-02-19T03:56:53.213Z,-5.57
2023-02-19T03:59:33.443Z,-5.56
2023-02-19T04:02:12.455Z,-5.55
2023-02-19T04:04:51.012Z,-5.55
2023-02-19T04:07:28.859Z,-5.55
2023-02-19T04:10:02.417Z,-5.59
2023-02-19T04:12:39.582Z,-5.57
2023-02-19T04:15:16.809Z,-5.52
2023-02-19T04:17:55.693Z,-5.53
2023-02-19T04:20:32.591Z,-5.64
2023-02-19T04:23:07.936Z,-5.52
2023-02-19T04:25:44.851Z,-5.55
2023-02-19T04:28:19.006Z,-5.57
2023-02-19T04:30:52.287Z,-5.61
2023-02-19T04:33:25.230Z,-5.57
2023-02-19T04:35:58.378Z,-5.55
2023-02-19T04:38:33.026Z,-5.65
2023-02-19T04:41:06.374Z,-5.64
2023-02-19T04:43:39.181Z,-5.49
2023-02-19T04:46:12.522Z,-5.56
2023-02-19T04:48:45.382Z,-5.46
2023-02-19T04:51:18.346Z,-5.49
2023-02-19T04:53:52.993Z,-5.47
2023-02-19T04:56:25.597Z,-5.48
2023-02-19T04:58:58.894Z,-5.50
2023-02-19T05:01:31.914Z,-5.50
2023-02-19T05:04:05.827Z,-5.51
2023-02-19T05:06:38.280Z,-5.49
2023-02-19T05:09:12.912Z,-5.48
2023-02-19T05:11:45.369Z,-5.47
2023-02-19T05:14:18.597Z,-5.46
2023-02-19T05:16:51.646Z,-5.48
2023-02-19T05:19:24.882Z,-5.43
2023-02-19T05:21:58.099Z,-5.43
2023-02-19T05:24:32.464Z,-5.43
2023-02-19T05:27:05.096Z,-5.48
2023-02-19T05:29:38.291Z,-5.46
2023-02-19T05:32:11.247Z,-5.49
2023-02-19T05:34:44.381Z,-5.42
2023-02-19T05:37:17.726Z,-5.35
2023-02-19T05:39:52.451Z,-5.33
2023-02-19T05:42:25.201Z,-5.33
2023-02-19T05:44:58.146Z,-5.35
2023-02-19T05:47:30.918Z,-5.30
2023-02-19T05:50:04.416Z,-5.27
2023-02-19T05:52:37.339Z,-5.27
2023-02-19T05:55:12.444Z,-5.22
2023-02-19T05:57:48.302Z,-5.23
2023-02-19T06:00:21.874Z,-5.18
2023-02-19T06:02:54.911Z,-5.14
2023-02-19T06:05:28.017Z,-5.18
2023-02-19T06:08:01.082Z,-5.14
2023-02-19T06:10:37.659Z,-5.06
2023-02-19T06:13:10.992Z,-5.03
2023-02-19T06:15:44.374Z,-5.02
2023-02-19T06:18:17.269Z,-4.95
2023-02-19T06:20:50.018Z,-5.01
2023-02-19T06:23:22.924Z,-4.94
2023-02-19T06:26:06.171Z,-5.01
2023-02-19T06:28:39.532Z,-4.96
2023-02-19T06:31:13.698Z,-4.96
2023-02-19T06:33:47.232Z,-4.94
2023-02-19T06:36:21.547Z,-4.90
2023-02-19T06:38:54.475Z,-4.94
2023-02-19T06:41:28.762Z,-4.95
2023-02-19T06:44:02.170Z,-4.94
2023-02-19T06:46:35.667Z,-4.91
2023-02-19T06:49:08.817Z,-4.89
2023-02-19T06:51:41.585Z,-4.81
2023-02-19T06:54:14.411Z,-4.78
2023-02-19T06:56:48.352Z,-4.73
2023-02-19T06:59:21.438Z,-4.71
2023-02-19T07:01:53.848Z,-4.67
2023-02-19T07:04:27.223Z,-4.67
2023-02-19T07:07:00.681Z,-4.66
2023-02-19T07:09:33.433Z,-4.62
2023-02-19T07:12:07.999Z,-4.61
2023-02-19T07:14:40.805Z,-4.56
2023-02-19T07:17:13.955Z,-4.47
2023-02-19T07:19:46.824Z,-4.40
2023-02-19T07:22:19.522Z,-4.33
2023-02-19T07:24:52.354Z,-4.30
2023-02-19T07:27:27.081Z,-4.17
2023-02-19T07:30:00.863Z,-4.10
2023-02-19T07:32:34.383Z,-4.06
2023-02-19T07:35:08.138Z,-4.05
2023-02-19T07:37:41.513Z,-4.03
2023-02-19T07:40:14.912Z,-4.05
2023-02-19T07:42:49.086Z,-4.08
2023-02-19T07:45:22.936Z,-4.11
2023-02-19T07:47:55.683Z,-4.12
2023-02-19T07:50:28.826Z,-4.06
2023-02-19T07:53:01.929Z,-4.02
2023-02-19T07:55:35.313Z,-4.15
2023-02-19T07:58:09.497Z,-4.13
2023-02-19T08:00:42.541Z,-4.05
2023-02-19T08:03:15.043Z,-4.11
2023-02-19T08:05:50.336Z,-4.06
2023-02-19T08:08:23.308Z,-4.06
2023-02-19T08:11:15.138Z,-4.08
2023-02-19T08:13:51.168Z,-4.04
2023-02-19T08:16:37.182Z,-4.09
2023-02-19T08:19:15.236Z,-4.03
2023-02-19T08:21:48.720Z,-4.04
2023-02-19T08:24:21.983Z,-4.03
2023-02-19T08:26:54.910Z,-4.01
2023-02-19T08:29:29.449Z,-4.00
2023-02-19T08:32:02.617Z,-3.98
2023-02-19T08:34:35.745Z,-3.95
2023-02-19T08:37:08.777Z,-3.91
2023-02-19T08:39:41.360Z,-3.84
2023-02-19T08:42:14.727Z,-3.79
2023-02-19T08:44:49.025Z,-3.75
2023-02-19T08:47:22.420Z,-3.78
2023-02-19T08:49:55.666Z,-3.71
2023-02-19T08:52:28.177Z,-3.72
2023-02-19T08:55:01.570Z,-3.67
2023-02-19T08:57:37.924Z,-3.65
2023-02-19T09:00:14.064Z,-3.65
2023-02-19T09:02:46.963Z,-3.65
2023-02-19T09:05:20.622Z,-3.59
2023-02-19T09:07:53.566Z,-3.53
2023-02-19T09:10:26.423Z,-3.47
2023-02-19T09:12:59.334Z,-3.43
2023-02-19T09:15:33.797Z,-3.38
2023-02-19T09:18:06.553Z,-3.36
2023-02-19T09:20:39.921Z,-3.26
2023-02-19T09:23:12.775Z,-3.21
2023-02-19T09:25:45.756Z,-3.16
2023-02-19T09:28:18.473Z,-3.15
2023-02-19T09:30:53.290Z,-3.10
2023-02-19T09:33:26.700Z,-3.08
2023-02-19T09:36:00.511Z,-3.13
2023-02-19T09:38:33.826Z,-3.02
2023-02-19T09:41:09.646Z,-3.02
2023-02-19T09:43:43.350Z,-3.02
2023-02-19T09:46:25.686Z,-3.06
2023-02-19T09:49:04.502Z,-3.10
2023-02-19T09:51:39.696Z,-3.17
2023-02-19T09:54:18.319Z,-3.10
2023-02-19T09:56:52.437Z,-3.07
2023-02-19T09:59:27.770Z,-2.99
2023-02-19T10:02:05.466Z,-2.94
2023-02-19T10:04:41.214Z,-2.90
2023-02-19T10:07:15.411Z,-2.80
2023-02-19T10:09:53.531Z,-2.73
2023-02-19T10:12:28.827Z,-2.64
2023-02-19T10:15:09.977Z,-2.63
2023-02-19T10:17:43.881Z,-2.62
2023-02-19T10:20:22.572Z,-2.63
2023-02-19T10:23:02.269Z,-2.67
2023-02-19T10:25:36.154Z,-2.62
2023-02-19T10:28:15.384Z,-2.58
2023-02-19T10:30:53.409Z,-2.61
2023-02-19T10:33:28.604Z,-2.50
2023-02-19T10:36:04.803Z,-2.50
2023-02-19T10:38:41.209Z,-2.56
2023-02-19T10:41:17.727Z,-2.54
2023-02-19T10:43:56.280Z,-2.45
2023-02-19T10:46:32.330Z,-2.42
2023-02-19T10:49:19.486Z,-2.43
2023-02-19T10:51:54.166Z,-2.35
2023-02-19T10:54:30.508Z,-2.32
2023-02-19T10:57:30.098Z,-2.28
2023-02-19T11:00:22.840Z,-2.24
2023-02-19T11:03:19.743Z,-2.13
2023-02-19T11:06:01.334Z,-2.14
2023-02-19T11:08:47.636Z,-2.12
2023-02-19T11:11:33.283Z,-2.21
2023-02-19T11:14:15.846Z,-2.15
2023-02-19T11:16:52.152Z,-2.10
2023-02-19T11:19:29.624Z,-2.08
2023-02-19T11:22:20.077Z,-2.08
2023-02-19T11:24:57.316Z,-2.02
2023-02-19T11:27:32.839Z,-1.97
2023-02-19T11:30:36.260Z,-1.91
2023-02-19T11:33:27.588Z,-1.89
2023-02-19T11:36:24.700Z,-1.87
2023-02-19T11:39:03.500Z,-1.86
2023-02-19T11:42:07.233Z,-1.86
2023-02-19T11:44:55.369Z,-1.82
2023-02-19T11:47:53.796Z,-1.75
2023-02-19T11:50:33.876Z,-1.74
2023-02-19T11:53:17.125Z,-1.68
2023-02-19T11:56:03.132Z,-1.63
2023-02-19T11:59:00.679Z,-1.64
2023-02-19T12:01:56.022Z,-1.61
2023-02-19T12:05:01.316Z,-1.60
2023-02-19T12:07:55.988Z,-1.52
2023-02-19T12:10:36.816Z,-1.47
2023-02-19T12:13:19.559Z,-1.40
2023-02-19T12:16:06.265Z,-1.32
2023-02-19T12:19:15.369Z,-1.26
2023-02-19T12:22:03.840Z,-1.26
2023-02-19T12:25:14.977Z,-1.25
2023-02-19T12:27:59.438Z,-1.32
2023-02-19T12:31:00.867Z,-1.24
2023-02-19T12:34:09.533Z,-1.27
2023-02-19T12:36:54.073Z,-1.28
2023-02-19T12:39:36.991Z,-1.44
2023-02-19T12:42:18.826Z,-1.47
2023-02-19T12:44:58.016Z,-1.41
2023-02-19T12:47:41.631Z,-1.32
2023-02-19T12:50:19.612Z,-1.33
2023-02-19T12:52:57.820Z,-1.24
2023-02-19T12:55:34.676Z,-1.24
2023-02-19T12:58:14.105Z,-1.20
2023-02-19T13:00:51.509Z,-1.44
2023-02-19T13:03:32.685Z,-1.18
2023-02-19T13:06:13.709Z,-1.15
2023-02-19T13:09:06.500Z,-1.16
2023-02-19T13:11:45.006Z,-1.17
2023-02-19T13:14:26.356Z,-1.05
2023-02-19T13:17:08.906Z,-1.04
2023-02-19T13:19:44.780Z,-1.04
2023-02-19T13:22:45.201Z,-1.02
2023-02-19T13:25:20.028Z,-1.03
2023-02-19T13:28:06.947Z,-1.05
2023-02-19T13:31:19.209Z,-1.02
2023-02-19T13:34:02.446Z,-0.97
2023-02-19T13:36:37.374Z,-0.97
2023-02-19T13:41:56.463Z,-0.89
2023-02-19T13:44:31.011Z,-0.92
2023-02-19T13:47:06.604Z,-0.90
2023-02-19T13:49:42.885Z,-0.87
2023-02-19T13:52:38.268Z,-0.88
2023-02-19T13:55:52.847Z,-0.89
2023-02-19T13:58:53.603Z,-0.91
2023-02-19T14:02:07.710Z,-0.96
2023-02-19T14:04:52.855Z,-0.95
2023-02-19T14:07:52.392Z,-0.97
2023-02-19T14:11:02.634Z,-0.97
2023-02-19T14:14:06.782Z,-0.99
2023-02-19T14:17:05.045Z,-1.00
2023-02-19T14:19:59.186Z,-1.00
2023-02-19T14:22:58.518Z,-0.99
2023-02-19T14:25:40.109Z,-1.02
2023-02-19T14:28:30.303Z,-1.01
2023-02-19T14:31:36.535Z,-1.01
2023-02-19T14:34:27.107Z,-1.04
2023-02-19T14:37:02.410Z,-1.01
2023-02-19T14:39:40.452Z,-0.99
2023-02-19T14:42:20.656Z,-0.98
2023-02-19T14:44:57.761Z,-0.97
2023-02-19T14:47:35.505Z,-1.00
2023-02-19T14:50:14.641Z,-0.97
2023-02-19T14:52:50.609Z,-1.01
2023-02-19T14:55:27.741Z,-1.01
2023-02-19T14:58:07.189Z,-0.98
2023-02-19T15:00:42.061Z,-0.98
2023-02-19T15:03:37.100Z,-0.97
2023-02-19T15:06:16.576Z,-0.98
2023-02-19T15:08:53.279Z,-0.97
2023-02-19T15:11:31.684Z,-0.95
2023-02-19T15:14:07.989Z,-0.94
2023-02-19T15:16:41.197Z,-0.92
2023-02-19T15:19:17.347Z,-0.90
2023-02-19T15:21:50.793Z,-0.91
2023-02-19T15:24:24.004Z,-0.87
2023-02-19T15:26:57.049Z,-0.86
2023-02-19T15:29:31.555Z,-0.83
2023-02-19T15:32:17.975Z,-0.81
2023-02-19T15:34:55.663Z,-0.78
2023-02-19T15:37:30.713Z,-0.73
2023-02-19T15:40:07.799Z,-0.69
2023-02-19T15:42:44.441Z,-0.64
2023-02-19T15:45:24.460Z,-0.62
2023-02-19T15:48:01.160Z,-0.55
2023-02-19T15:50:36.277Z,-0.53
2023-02-19T15:53:14.464Z,-0.51
2023-02-19T15:55:54.063Z,-0.49
2023-02-19T15:58:31.614Z,-0.49
2023-02-19T16:01:13.521Z,-0.43
2023-02-19T16:03:47.806Z,-0.41
2023-02-19T16:06:22.181Z,-0.54
2023-02-19T16:09:02.653Z,-0.36
2023-02-19T16:11:37.528Z,-0.33
2023-02-19T16:14:19.323Z,-0.30
2023-02-19T16:16:57.314Z,-0.26
2023-02-19T16:19:34.239Z,-0.24
2023-02-19T16:22:10.921Z,-0.26
2023-02-19T16:24:45.929Z,-0.24
2023-02-19T16:27:30.738Z,-0.29
2023-02-19T16:30:08.065Z,-0.22
2023-02-19T16:32:44.670Z,-0.21
2023-02-19T16:35:35.565Z,-0.22
2023-02-19T16:38:14.162Z,-0.20
2023-02-19T16:41:06.925Z,-0.30
2023-02-19T16:43:42.030Z,-0.20
2023-02-19T16:46:14.707Z,-0.18
2023-02-19T16:48:50.521Z,-0.17
2023-02-19T16:51:27.071Z,-0.18
2023-02-19T16:54:00.329Z,-0.20
2023-02-19T16:56:33.210Z,-0.20
2023-02-19T16:59:09.803Z,-0.16
2023-02-19T17:01:45.338Z,-0.14
2023-02-19T17:04:20.166Z,-0.14
2023-02-19T17:06:52.875Z,-0.14
2023-02-19T17:09:26.041Z,-0.15
2023-02-19T17:11:58.719Z,-0.16
2023-02-19T17:14:31.622Z,-0.14
2023-02-19T17:17:05.626Z,-0.16
2023-02-19T17:19:40.398Z,-0.22
2023-02-19T17:22:17.134Z,-0.16
2023-02-19T17:24:50.218Z,-0.20
2023-02-19T17:27:23.180Z,-0.16
2023-02-19T17:29:56.252Z,-0.16
2023-02-19T17:32:29.368Z,-0.40
2023-02-19T17:35:03.665Z,-0.17
2023-02-19T17:37:36.144Z,-0.18
2023-02-19T17:40:31.917Z,-0.17
2023-02-19T17:43:06.879Z,-0.20
2023-02-19T17:45:40.244Z,-0.19
2023-02-19T17:48:13.903Z,-0.29
2023-02-19T17:50:50.366Z,-0.19
2023-02-19T17:53:23.708Z,-0.19
2023-02-19T17:55:56.521Z,-0.19
2023-02-19T17:58:30.093Z,-0.25
2023-02-19T18:01:03.190Z,-0.18
2023-02-19T18:03:36.357Z,-0.18
2023-02-19T18:06:10.526Z,-0.22
2023-02-19T18:08:48.452Z,-0.18
2023-02-19T18:11:22.327Z,-0.17
2023-02-19T18:13:55.829Z,-0.20
2023-02-19T18:16:28.446Z,-0.16
2023-02-19T18:19:02.495Z,-0.16
2023-02-19T18:21:36.856Z,-0.15
2023-02-19T18:24:09.594Z,-0.15
2023-02-19T18:26:42.879Z,-0.12
2023-02-19T18:29:15.480Z,-0.13
2023-02-19T18:31:48.882Z,-0.20
2023-02-19T18:34:22.103Z,-0.14
2023-02-19T18:36:56.625Z,-0.12
2023-02-19T18:39:29.471Z,-0.12
2023-02-19T18:42:02.673Z,-0.14
2023-02-19T18:44:35.622Z,-0.11
2023-02-19T18:47:09.741Z,-0.09
2023-02-19T18:49:46.938Z,-0.09
2023-02-19T18:52:25.212Z,-0.08
2023-02-19T18:54:58.400Z,-0.08
2023-02-19T18:57:31.904Z,-0.11
2023-02-19T19:00:08.886Z,-0.12
2023-02-19T19:02:49.040Z,-0.10
2023-02-19T19:05:23.578Z,-0.09
2023-02-19T19:07:59.818Z,-0.11
2023-02-19T19:10:32.752Z,-0.08
2023-02-19T19:13:05.401Z,-0.07
2023-02-19T19:15:41.707Z,-0.06
2023-02-19T19:18:14.689Z,-0.10
2023-02-19T19:20:48.193Z,-0.05
2023-02-19T19:23:22.188Z,-0.09
2023-02-19T19:25:55.804Z,-0.06
2023-02-19T19:28:30.870Z,-0.03
2023-02-19T19:31:04.470Z,-0.01
2023-02-19T19:33:37.905Z,-0.05
2023-02-19T19:36:12.265Z,0.02
2023-02-19T19:38:47.617Z,0.03
2023-02-19T19:41:21.805Z,0.05
2023-02-19T19:43:54.672Z,0.07
2023-02-19T19:46:27.163Z,0.06
2023-02-19T19:49:01.030Z,0.05
2023-02-19T19:51:35.091Z,0.05
2023-02-19T19:54:10.449Z,0.03
2023-02-19T19:56:45.370Z,0.01
2023-02-19T19:59:19.091Z,-0.01
2023-02-19T20:01:54.722Z,0.00
2023-02-19T20:04:27.854Z,-0.02
2023-02-19T20:07:00.688Z,-0.12
2023-02-19T20:09:35.688Z,-0.06
2023-02-19T20:12:08.874Z,-0.12
2023-02-19T20:14:45.848Z,-0.12
2023-02-19T20:17:19.012Z,-0.14
2023-02-19T20:19:51.869Z,-0.18
2023-02-19T20:22:24.545Z,-0.21
2023-02-19T20:24:58.816Z,-0.22
2023-02-19T20:27:32.237Z,-0.30
2023-02-19T20:30:06.129Z,-0.28
2023-02-19T20:32:39.143Z,-0.31
2023-02-19T20:35:12.305Z,-0.37
2023-02-19T20:37:48.084Z,-0.40
2023-02-19T20:40:27.909Z,-0.41
2023-02-19T20:43:01.804Z,-0.36
2023-02-19T20:45:34.318Z,-0.36
2023-02-19T20:48:07.787Z,-0.37
2023-02-19T20:50:40.477Z,-0.37
2023-02-19T20:53:13.897Z,-0.37
2023-02-19T20:55:47.875Z,-0.38
2023-02-19T20:58:21.227Z,-0.35
2023-02-19T21:00:54.958Z,-0.34
2023-02-19T21:03:27.791Z,-0.33
2023-02-19T21:06:00.999Z,-0.35
2023-02-19T21:08:33.848Z,-0.32
2023-02-19T21:11:08.859Z,-0.30
2023-02-19T21:13:43.264Z,-0.32
2023-02-19T21:16:16.294Z,-0.33
2023-02-19T21:18:49.497Z,-0.34
2023-02-19T21:21:25.442Z,-0.36
2023-02-19T21:24:00.244Z,-0.37
2023-02-19T21:26:37.181Z,-0.38
2023-02-19T21:29:15.799Z,-0.40
2023-02-19T21:31:50.919Z,-0.45
2023-02-19T21:34:25.510Z,-0.47
2023-02-19T21:36:58.644Z,-0.48
2023-02-19T21:39:34.897Z,-0.48
2023-02-19T21:42:09.512Z,-0.49
2023-02-19T21:44:43.213Z,-0.47
2023-02-19T21:47:15.937Z,-0.48
2023-02-19T21:49:49.141Z,-0.51
2023-02-19T21:52:23.526Z,-0.53
2023-02-19T21:54:56.659Z,-0.55
2023-02-19T21:57:32.616Z,-0.56
2023-02-19T22:00:07.340Z,-0.61
2023-02-19T22:02:40.677Z,-0.61
2023-02-19T22:05:13.673Z,-0.64
2023-02-19T22:07:48.166Z,-0.67
2023-02-19T22:10:21.380Z,-0.71
2023-02-19T22:12:55.390Z,-0.75
2023-02-19T22:15:28.384Z,-0.80
2023-02-19T22:18:01.251Z,-0.85
2023-02-19T22:20:34.883Z,-0.86
2023-02-19T22:23:07.846Z,-0.94
2023-02-19T22:25:41.104Z,-0.94
2023-02-19T22:28:15.600Z,-0.97
2023-02-19T22:30:48.753Z,-1.00
2023-02-19T22:33:21.768Z,-1.04
2023-02-19T22:35:54.582Z,-1.10
2023-02-19T22:38:27.678Z,-1.11
2023-02-19T22:41:00.707Z,-1.14
2023-02-19T22:43:35.048Z,-1.24
2023-02-19T22:46:12.090Z,-1.22
2023-02-19T22:48:45.132Z,-1.21
2023-02-19T22:51:19.782Z,-1.37
2023-02-19T22:53:54.604Z,-1.25
2023-02-19T22:56:28.639Z,-1.33
2023-02-19T22:59:03.142Z,-1.39
2023-02-19T23:01:38.971Z,-1.33
2023-02-19T23:04:11.825Z,-1.36
2023-02-19T23:06:48.849Z,-1.39
2023-02-19T23:09:23.818Z,-1.44
2023-02-19T23:12:02.060Z,-1.51
2023-02-19T23:14:36.866Z,-1.51
2023-02-19T23:17:09.734Z,-1.54
2023-02-19T23:19:42.599Z,-1.57
2023-02-19T23:22:15.698Z,-1.61
2023-02-19T23:24:48.790Z,-1.59
2023-02-19T23:27:24.289Z,-1.58
2023-02-19T23:29:58.977Z,-1.65
2023-02-19T23:32:31.593Z,-1.53
2023-02-19T23:35:05.040Z,-1.50
2023-02-19T23:37:37.776Z,-1.59
2023-02-19T23:40:12.461Z,-1.47
2023-02-19T23:42:45.488Z,-1.46
2023-02-19T23:45:20.322Z,-1.41
2023-02-19T23:47:53.299Z,-1.38
2023-02-19T23:50:26.597Z,-1.37
2023-02-19T23:52:59.610Z,-1.36
2023-02-19T23:55:32.728Z,-1.37
2023-02-19T23:58:05.568Z,-1.38
